sensor_id;sensor_type;location;lat;lon;timestamp;temperature;humidity
1021;DHT22;499;42.648;23.270;2022-09-20T00:01:03;9.60;41.10
1021;DHT22;499;42.648;23.270;2022-09-20T00:03:32;9.50;42.00
1021;DHT22;499;42.648;23.270;2022-09-20T00:06:00;9.50;42.70
1021;DHT22;499;42.648;23.270;2022-09-20T00:08:28;9.40;42.60
1021;DHT22;499;42.648;23.270;2022-09-20T00:10:58;9.30;42.80
1021;DHT22;499;42.648;23.270;2022-09-20T00:13:28;9.30;44.20
1021;DHT22;499;42.648;23.270;2022-09-20T00:15:56;9.40;44.70
1021;DHT22;499;42.648;23.270;2022-09-20T00:18:24;9.40;41.70
1021;DHT22;499;42.648;23.270;2022-09-20T00:20:52;9.40;44.80
1021;DHT22;499;42.648;23.270;2022-09-20T00:23:19;9.40;42.90
1021;DHT22;499;42.648;23.270;2022-09-20T00:25:54;9.40;45.50
1021;DHT22;499;42.648;23.270;2022-09-20T00:28:21;9.40;44.90
1021;DHT22;499;42.648;23.270;2022-09-20T00:30:48;9.30;45.90
1021;DHT22;499;42.648;23.270;2022-09-20T00:33:16;9.30;47.40
1021;DHT22;499;42.648;23.270;2022-09-20T00:35:44;9.20;46.70
1021;DHT22;499;42.648;23.270;2022-09-20T00:38:12;9.20;48.80
1021;DHT22;499;42.648;23.270;2022-09-20T00:40:39;9.10;48.00
1021;DHT22;499;42.648;23.270;2022-09-20T00:43:08;9.10;49.20
1021;DHT22;499;42.648;23.270;2022-09-20T00:45:36;9.10;48.20
1021;DHT22;499;42.648;23.270;2022-09-20T00:48:08;9.10;48.10
1021;DHT22;499;42.648;23.270;2022-09-20T00:50:40;9.20;47.70
1021;DHT22;499;42.648;23.270;2022-09-20T00:53:12;9.10;45.40
1021;DHT22;499;42.648;23.270;2022-09-20T00:55:43;9.00;45.90
1021;DHT22;499;42.648;23.270;2022-09-20T00:58:12;9.00;46.00
1021;DHT22;499;42.648;23.270;2022-09-20T01:00:40;9.00;45.30
1021;DHT22;499;42.648;23.270;2022-09-20T01:03:09;8.90;45.50
1021;DHT22;499;42.648;23.270;2022-09-20T01:05:37;9.00;45.30
1021;DHT22;499;42.648;23.270;2022-09-20T01:08:06;9.00;45.30
1021;DHT22;499;42.648;23.270;2022-09-20T01:10:36;9.00;44.40
1021;DHT22;499;42.648;23.270;2022-09-20T01:13:03;9.00;43.40
1021;DHT22;499;42.648;23.270;2022-09-20T01:15:32;9.10;43.10
1021;DHT22;499;42.648;23.270;2022-09-20T01:18:00;9.10;39.50
1021;DHT22;499;42.648;23.270;2022-09-20T01:20:30;9.20;41.40
1021;DHT22;499;42.648;23.270;2022-09-20T01:23:25;9.00;39.00
1021;DHT22;499;42.648;23.270;2022-09-20T01:26:29;9.10;38.70
1021;DHT22;499;42.648;23.270;2022-09-20T01:29:09;9.00;36.30
1021;DHT22;499;42.648;23.270;2022-09-20T01:31:43;9.10;36.30
1021;DHT22;499;42.648;23.270;2022-09-20T01:34:13;9.10;36.60
1021;DHT22;499;42.648;23.270;2022-09-20T01:36:44;9.10;36.00
1021;DHT22;499;42.648;23.270;2022-09-20T01:39:21;9.10;36.00
1021;DHT22;499;42.648;23.270;2022-09-20T01:41:56;9.00;35.40
1021;DHT22;499;42.648;23.270;2022-09-20T01:44:30;8.90;36.70
1021;DHT22;499;42.648;23.270;2022-09-20T01:47:04;8.80;37.40
1021;DHT22;499;42.648;23.270;2022-09-20T01:49:41;8.70;38.60
1021;DHT22;499;42.648;23.270;2022-09-20T01:52:37;8.70;40.30
1021;DHT22;499;42.648;23.270;2022-09-20T01:55:28;8.60;40.70
1021;DHT22;499;42.648;23.270;2022-09-20T01:58:23;8.60;40.40
1021;DHT22;499;42.648;23.270;2022-09-20T02:01:11;8.60;40.80
1021;DHT22;499;42.648;23.270;2022-09-20T02:04:07;8.50;40.20
1021;DHT22;499;42.648;23.270;2022-09-20T02:06:52;8.60;40.30
1021;DHT22;499;42.648;23.270;2022-09-20T02:09:36;8.40;41.40
1021;DHT22;499;42.648;23.270;2022-09-20T02:12:31;8.50;43.00
1021;DHT22;499;42.648;23.270;2022-09-20T02:15:07;8.30;44.10
1021;DHT22;499;42.648;23.270;2022-09-20T02:17:50;8.30;44.70
1021;DHT22;499;42.648;23.270;2022-09-20T02:20:32;8.30;44.80
1021;DHT22;499;42.648;23.270;2022-09-20T02:23:15;8.20;45.00
1021;DHT22;499;42.648;23.270;2022-09-20T02:26:04;8.10;43.60
1021;DHT22;499;42.648;23.270;2022-09-20T02:28:52;8.10;42.80
1021;DHT22;499;42.648;23.270;2022-09-20T02:31:47;8.10;45.30
1021;DHT22;499;42.648;23.270;2022-09-20T02:34:43;8.00;49.00
1021;DHT22;499;42.648;23.270;2022-09-20T02:40:13;7.90;51.40
1021;DHT22;499;42.648;23.270;2022-09-20T02:42:46;7.80;51.60
1021;DHT22;499;42.648;23.270;2022-09-20T02:45:21;7.80;53.40
1021;DHT22;499;42.648;23.270;2022-09-20T02:47:52;7.80;54.30
1021;DHT22;499;42.648;23.270;2022-09-20T02:50:34;7.80;56.50
1021;DHT22;499;42.648;23.270;2022-09-20T02:53:17;7.70;57.70
1021;DHT22;499;42.648;23.270;2022-09-20T02:55:55;7.70;58.30
1021;DHT22;499;42.648;23.270;2022-09-20T02:58:30;7.80;58.30
1021;DHT22;499;42.648;23.270;2022-09-20T03:01:04;7.70;59.70
1021;DHT22;499;42.648;23.270;2022-09-20T03:03:41;7.70;60.10
1021;DHT22;499;42.648;23.270;2022-09-20T03:06:20;7.60;60.30
1021;DHT22;499;42.648;23.270;2022-09-20T03:08:55;7.50;63.10
1021;DHT22;499;42.648;23.270;2022-09-20T03:11:28;7.50;63.30
1021;DHT22;499;42.648;23.270;2022-09-20T03:14:10;7.50;63.50
1021;DHT22;499;42.648;23.270;2022-09-20T03:16:50;7.50;64.60
1021;DHT22;499;42.648;23.270;2022-09-20T03:19:33;7.50;63.80
1021;DHT22;499;42.648;23.270;2022-09-20T03:22:12;7.40;63.60
1021;DHT22;499;42.648;23.270;2022-09-20T03:24:56;7.40;65.10
1021;DHT22;499;42.648;23.270;2022-09-20T03:27:31;7.40;65.00
1021;DHT22;499;42.648;23.270;2022-09-20T03:30:18;7.50;65.50
1021;DHT22;499;42.648;23.270;2022-09-20T03:32:54;7.50;64.90
1021;DHT22;499;42.648;23.270;2022-09-20T03:35:37;7.40;59.80
1021;DHT22;499;42.648;23.270;2022-09-20T03:38:22;7.50;59.60
1021;DHT22;499;42.648;23.270;2022-09-20T03:41:06;7.60;57.60
1021;DHT22;499;42.648;23.270;2022-09-20T03:43:55;7.60;55.90
1021;DHT22;499;42.648;23.270;2022-09-20T03:46:27;7.70;56.10
1021;DHT22;499;42.648;23.270;2022-09-20T03:52:04;7.70;57.20
1021;DHT22;499;42.648;23.270;2022-09-20T03:57:49;7.70;55.90
1021;DHT22;499;42.648;23.270;2022-09-20T04:00:23;7.70;57.60
1021;DHT22;499;42.648;23.270;2022-09-20T04:03:24;7.60;57.60
1021;DHT22;499;42.648;23.270;2022-09-20T04:06:22;7.70;56.60
1021;DHT22;499;42.648;23.270;2022-09-20T04:09:12;7.60;58.20
1021;DHT22;499;42.648;23.270;2022-09-20T04:11:48;7.70;57.70
1021;DHT22;499;42.648;23.270;2022-09-20T04:14:24;7.70;56.90
1021;DHT22;499;42.648;23.270;2022-09-20T04:17:01;7.70;57.70
1021;DHT22;499;42.648;23.270;2022-09-20T04:19:38;7.70;57.70
1021;DHT22;499;42.648;23.270;2022-09-20T04:22:10;7.70;59.60
1021;DHT22;499;42.648;23.270;2022-09-20T04:24:41;7.60;60.60
1021;DHT22;499;42.648;23.270;2022-09-20T04:27:15;7.70;60.00
1021;DHT22;499;42.648;23.270;2022-09-20T04:29:48;7.70;59.70
1021;DHT22;499;42.648;23.270;2022-09-20T04:32:22;7.80;57.80
1021;DHT22;499;42.648;23.270;2022-09-20T04:34:57;7.80;57.80
1021;DHT22;499;42.648;23.270;2022-09-20T04:37:43;7.80;55.00
1021;DHT22;499;42.648;23.270;2022-09-20T04:40:22;7.90;55.30
1021;DHT22;499;42.648;23.270;2022-09-20T04:43:14;8.00;55.00
1021;DHT22;499;42.648;23.270;2022-09-20T04:46:16;8.10;53.30
1021;DHT22;499;42.648;23.270;2022-09-20T04:52:16;8.10;54.10
1021;DHT22;499;42.648;23.270;2022-09-20T04:58:19;8.10;54.50
1021;DHT22;499;42.648;23.270;2022-09-20T05:10:01;8.40;49.30
1021;DHT22;499;42.648;23.270;2022-09-20T05:12:51;8.50;49.40
1021;DHT22;499;42.648;23.270;2022-09-20T05:15:38;8.50;47.40
1021;DHT22;499;42.648;23.270;2022-09-20T05:18:45;8.60;47.70
1021;DHT22;499;42.648;23.270;2022-09-20T05:21:35;8.70;45.00
1021;DHT22;499;42.648;23.270;2022-09-20T05:24:27;8.80;45.10
1021;DHT22;499;42.648;23.270;2022-09-20T05:27:06;8.90;45.10
1021;DHT22;499;42.648;23.270;2022-09-20T05:29:48;8.80;45.10
1021;DHT22;499;42.648;23.270;2022-09-20T05:32:22;8.90;44.50
1021;DHT22;499;42.648;23.270;2022-09-20T05:34:55;8.90;45.20
1021;DHT22;499;42.648;23.270;2022-09-20T05:37:36;9.00;44.00
1021;DHT22;499;42.648;23.270;2022-09-20T05:40:15;9.00;44.20
1021;DHT22;499;42.648;23.270;2022-09-20T05:42:51;9.00;42.80
1021;DHT22;499;42.648;23.270;2022-09-20T05:45:35;9.10;43.70
1021;DHT22;499;42.648;23.270;2022-09-20T05:48:13;9.10;43.00
1021;DHT22;499;42.648;23.270;2022-09-20T05:50:47;9.30;43.50
1021;DHT22;499;42.648;23.270;2022-09-20T05:56:27;9.30;40.80
1021;DHT22;499;42.648;23.270;2022-09-20T05:59:14;9.30;41.90
1021;DHT22;499;42.648;23.270;2022-09-20T06:01:56;9.30;40.80
1021;DHT22;499;42.648;23.270;2022-09-20T06:04:29;9.40;38.50
1021;DHT22;499;42.648;23.270;2022-09-20T06:07:06;9.50;37.60
1021;DHT22;499;42.648;23.270;2022-09-20T06:09:51;9.60;40.50
1021;DHT22;499;42.648;23.270;2022-09-20T06:12:37;9.60;36.60
1021;DHT22;499;42.648;23.270;2022-09-20T06:15:15;9.70;37.60
1021;DHT22;499;42.648;23.270;2022-09-20T06:17:54;9.90;37.80
1021;DHT22;499;42.648;23.270;2022-09-20T06:20:27;9.70;36.50
1021;DHT22;499;42.648;23.270;2022-09-20T06:22:58;9.90;36.60
1021;DHT22;499;42.648;23.270;2022-09-20T06:25:29;10.00;34.60
1021;DHT22;499;42.648;23.270;2022-09-20T06:28:04;10.00;33.80
1021;DHT22;499;42.648;23.270;2022-09-20T06:30:34;10.10;35.50
1021;DHT22;499;42.648;23.270;2022-09-20T06:33:13;10.10;34.40
1021;DHT22;499;42.648;23.270;2022-09-20T06:35:48;10.20;32.20
1021;DHT22;499;42.648;23.270;2022-09-20T06:38:37;10.20;35.90
1021;DHT22;499;42.648;23.270;2022-09-20T06:41:24;10.20;35.50
1021;DHT22;499;42.648;23.270;2022-09-20T06:43:53;10.30;36.00
1021;DHT22;499;42.648;23.270;2022-09-20T06:46:23;10.20;35.80
1021;DHT22;499;42.648;23.270;2022-09-20T06:48:50;10.20;37.10
1021;DHT22;499;42.648;23.270;2022-09-20T06:51:18;10.30;36.20
1021;DHT22;499;42.648;23.270;2022-09-20T06:53:46;10.30;35.20
1021;DHT22;499;42.648;23.270;2022-09-20T06:56:16;10.40;32.40
1021;DHT22;499;42.648;23.270;2022-09-20T06:58:44;10.40;36.10
1021;DHT22;499;42.648;23.270;2022-09-20T07:01:11;10.50;32.90
1021;DHT22;499;42.648;23.270;2022-09-20T07:03:38;10.60;34.30
1021;DHT22;499;42.648;23.270;2022-09-20T07:06:06;10.60;31.50
1021;DHT22;499;42.648;23.270;2022-09-20T07:08:35;10.80;30.50
1021;DHT22;499;42.648;23.270;2022-09-20T07:11:03;10.90;30.10
1021;DHT22;499;42.648;23.270;2022-09-20T07:13:30;11.00;28.60
1021;DHT22;499;42.648;23.270;2022-09-20T07:15:59;11.00;28.10
1021;DHT22;499;42.648;23.270;2022-09-20T07:18:27;11.00;27.70
1021;DHT22;499;42.648;23.270;2022-09-20T07:20:55;11.10;27.80
1021;DHT22;499;42.648;23.270;2022-09-20T07:23:23;11.30;27.00
1021;DHT22;499;42.648;23.270;2022-09-20T07:25:52;11.30;27.10
1021;DHT22;499;42.648;23.270;2022-09-20T07:28:19;11.40;26.50
1021;DHT22;499;42.648;23.270;2022-09-20T07:30:46;11.50;27.20
1021;DHT22;499;42.648;23.270;2022-09-20T07:33:14;11.60;26.40
1021;DHT22;499;42.648;23.270;2022-09-20T07:35:46;11.60;24.40
1021;DHT22;499;42.648;23.270;2022-09-20T07:38:14;11.70;24.40
1021;DHT22;499;42.648;23.270;2022-09-20T07:40:41;11.90;24.10
1021;DHT22;499;42.648;23.270;2022-09-20T07:43:10;11.80;24.50
1021;DHT22;499;42.648;23.270;2022-09-20T07:45:38;11.80;24.50
1021;DHT22;499;42.648;23.270;2022-09-20T07:48:05;11.90;23.80
1021;DHT22;499;42.648;23.270;2022-09-20T07:50:34;12.00;23.30
1021;DHT22;499;42.648;23.270;2022-09-20T07:53:01;11.60;23.50
1021;DHT22;499;42.648;23.270;2022-09-20T07:55:29;11.70;24.40
1021;DHT22;499;42.648;23.270;2022-09-20T07:57:56;11.60;25.70
1021;DHT22;499;42.648;23.270;2022-09-20T08:00:25;11.50;26.10
1021;DHT22;499;42.648;23.270;2022-09-20T08:02:58;11.60;26.70
1021;DHT22;499;42.648;23.270;2022-09-20T08:05:25;11.70;26.60
1021;DHT22;499;42.648;23.270;2022-09-20T08:07:54;11.70;27.20
1021;DHT22;499;42.648;23.270;2022-09-20T08:10:21;11.80;25.20
1021;DHT22;499;42.648;23.270;2022-09-20T08:12:49;11.80;24.50
1021;DHT22;499;42.648;23.270;2022-09-20T08:15:16;12.00;24.60
1021;DHT22;499;42.648;23.270;2022-09-20T08:17:47;12.10;24.70
1021;DHT22;499;42.648;23.270;2022-09-20T08:20:14;12.10;24.70
1021;DHT22;499;42.648;23.270;2022-09-20T08:22:41;12.30;24.50
1021;DHT22;499;42.648;23.270;2022-09-20T08:25:09;12.20;23.50
1021;DHT22;499;42.648;23.270;2022-09-20T08:27:36;12.30;22.50
1021;DHT22;499;42.648;23.270;2022-09-20T08:30:03;12.40;22.80
1021;DHT22;499;42.648;23.270;2022-09-20T08:32:31;12.50;23.10
1021;DHT22;499;42.648;23.270;2022-09-20T08:35:00;12.60;22.80
1021;DHT22;499;42.648;23.270;2022-09-20T08:37:27;12.60;21.20
1021;DHT22;499;42.648;23.270;2022-09-20T08:39:54;12.80;21.30
1021;DHT22;499;42.648;23.270;2022-09-20T08:42:26;13.20;20.90
1021;DHT22;499;42.648;23.270;2022-09-20T08:44:56;13.00;19.60
1021;DHT22;499;42.648;23.270;2022-09-20T08:47:26;13.00;19.60
1021;DHT22;499;42.648;23.270;2022-09-20T08:49:57;13.00;20.10
1021;DHT22;499;42.648;23.270;2022-09-20T08:52:27;13.40;20.20
1021;DHT22;499;42.648;23.270;2022-09-20T08:54:56;13.30;18.70
1021;DHT22;499;42.648;23.270;2022-09-20T08:57:27;13.20;20.10
1021;DHT22;499;42.648;23.270;2022-09-20T08:59:57;13.40;19.20
1021;DHT22;499;42.648;23.270;2022-09-20T09:02:24;13.30;18.60
1021;DHT22;499;42.648;23.270;2022-09-20T09:04:51;13.50;18.50
1021;DHT22;499;42.648;23.270;2022-09-20T09:07:20;13.50;18.30
1021;DHT22;499;42.648;23.270;2022-09-20T09:09:51;13.70;19.50
1021;DHT22;499;42.648;23.270;2022-09-20T09:12:21;13.80;18.00
1021;DHT22;499;42.648;23.270;2022-09-20T09:14:50;13.50;17.60
1021;DHT22;499;42.648;23.270;2022-09-20T09:17:22;13.70;19.20
1021;DHT22;499;42.648;23.270;2022-09-20T09:19:51;13.70;18.50
1021;DHT22;499;42.648;23.270;2022-09-20T09:22:21;13.70;19.40
1021;DHT22;499;42.648;23.270;2022-09-20T09:25:25;13.70;17.90
1021;DHT22;499;42.648;23.270;2022-09-20T09:27:58;13.70;17.80
1021;DHT22;499;42.648;23.270;2022-09-20T09:30:28;13.30;17.70
1021;DHT22;499;42.648;23.270;2022-09-20T09:33:14;13.30;17.70
1021;DHT22;499;42.648;23.270;2022-09-20T09:35:42;13.00;17.60
1021;DHT22;499;42.648;23.270;2022-09-20T09:38:16;13.00;18.40
1021;DHT22;499;42.648;23.270;2022-09-20T09:40:51;12.90;17.50
1021;DHT22;499;42.648;23.270;2022-09-20T09:43:21;13.00;18.40
1021;DHT22;499;42.648;23.270;2022-09-20T09:45:52;12.90;17.30
1021;DHT22;499;42.648;23.270;2022-09-20T09:48:23;12.90;17.70
1021;DHT22;499;42.648;23.270;2022-09-20T09:51:07;12.90;17.40
1021;DHT22;499;42.648;23.270;2022-09-20T09:53:35;13.40;16.70
1021;DHT22;499;42.648;23.270;2022-09-20T09:56:40;13.30;16.60
1021;DHT22;499;42.648;23.270;2022-09-20T09:59:29;13.50;15.50
1021;DHT22;499;42.648;23.270;2022-09-20T10:02:03;13.70;16.80
1021;DHT22;499;42.648;23.270;2022-09-20T10:04:43;14.00;14.20
1021;DHT22;499;42.648;23.270;2022-09-20T10:07:16;13.80;15.40
1021;DHT22;499;42.648;23.270;2022-09-20T10:10:03;13.60;15.60
1021;DHT22;499;42.648;23.270;2022-09-20T10:12:46;13.60;15.40
1021;DHT22;499;42.648;23.270;2022-09-20T10:15:27;13.50;16.10
1021;DHT22;499;42.648;23.270;2022-09-20T10:18:12;13.50;17.00
1021;DHT22;499;42.648;23.270;2022-09-20T10:20:49;13.60;17.00
1021;DHT22;499;42.648;23.270;2022-09-20T10:23:27;13.50;17.80
1021;DHT22;499;42.648;23.270;2022-09-20T10:26:06;13.50;16.70
1021;DHT22;499;42.648;23.270;2022-09-20T10:28:51;13.50;16.70
1021;DHT22;499;42.648;23.270;2022-09-20T10:31:33;13.60;16.90
1021;DHT22;499;42.648;23.270;2022-09-20T10:34:31;13.60;16.80
1021;DHT22;499;42.648;23.270;2022-09-20T10:37:12;13.60;16.10
1021;DHT22;499;42.648;23.270;2022-09-20T10:39:43;13.60;15.60
1021;DHT22;499;42.648;23.270;2022-09-20T10:42:26;13.70;16.40
1021;DHT22;499;42.648;23.270;2022-09-20T10:45:17;13.50;16.00
1021;DHT22;499;42.648;23.270;2022-09-20T10:47:52;13.60;15.70
1021;DHT22;499;42.648;23.270;2022-09-20T10:50:29;13.70;14.80
1021;DHT22;499;42.648;23.270;2022-09-20T10:53:14;13.70;14.50
1021;DHT22;499;42.648;23.270;2022-09-20T10:55:49;13.80;13.90
1021;DHT22;499;42.648;23.270;2022-09-20T11:01:24;14.00;13.40
1021;DHT22;499;42.648;23.270;2022-09-20T11:07:10;14.10;14.30
1021;DHT22;499;42.648;23.270;2022-09-20T11:09:47;14.00;13.40
1021;DHT22;499;42.648;23.270;2022-09-20T11:12:23;14.10;12.90
1021;DHT22;499;42.648;23.270;2022-09-20T11:14:54;13.90;13.20
1021;DHT22;499;42.648;23.270;2022-09-20T11:17:28;13.90;14.10
1021;DHT22;499;42.648;23.270;2022-09-20T11:19:59;14.00;14.20
1021;DHT22;499;42.648;23.270;2022-09-20T11:22:32;14.00;14.20
1021;DHT22;499;42.648;23.270;2022-09-20T11:25:05;14.00;14.20
1021;DHT22;499;42.648;23.270;2022-09-20T11:27:40;14.10;13.90
1021;DHT22;499;42.648;23.270;2022-09-20T11:30:15;14.20;13.90
1021;DHT22;499;42.648;23.270;2022-09-20T11:32:48;14.30;13.50
1021;DHT22;499;42.648;23.270;2022-09-20T11:35:26;14.50;13.30
1021;DHT22;499;42.648;23.270;2022-09-20T11:38:03;14.60;13.20
1021;DHT22;499;42.648;23.270;2022-09-20T11:40:36;14.60;13.00
1021;DHT22;499;42.648;23.270;2022-09-20T11:43:06;14.50;13.10
1021;DHT22;499;42.648;23.270;2022-09-20T11:45:37;14.50;13.30
1021;DHT22;499;42.648;23.270;2022-09-20T11:48:13;14.20;14.30
1021;DHT22;499;42.648;23.270;2022-09-20T11:51:05;14.00;14.20
1021;DHT22;499;42.648;23.270;2022-09-20T11:53:46;13.80;14.00
1021;DHT22;499;42.648;23.270;2022-09-20T11:56:19;13.90;14.10
1021;DHT22;499;42.648;23.270;2022-09-20T11:58:48;14.10;13.50
1021;DHT22;499;42.648;23.270;2022-09-20T12:01:24;14.20;14.00
1021;DHT22;499;42.648;23.270;2022-09-20T12:03:55;14.30;13.50
1021;DHT22;499;42.648;23.270;2022-09-20T12:06:27;14.30;13.40
1021;DHT22;499;42.648;23.270;2022-09-20T12:08:59;14.30;12.10
1021;DHT22;499;42.648;23.270;2022-09-20T12:11:30;14.50;12.40
1021;DHT22;499;42.648;23.270;2022-09-20T12:14:03;14.60;12.40
1021;DHT22;499;42.648;23.270;2022-09-20T12:16:37;14.80;12.00
1021;DHT22;499;42.648;23.270;2022-09-20T12:19:09;14.80;10.60
1021;DHT22;499;42.648;23.270;2022-09-20T12:22:25;15.00;10.90
1021;DHT22;499;42.648;23.270;2022-09-20T12:25:33;15.00;11.30
1021;DHT22;499;42.648;23.270;2022-09-20T12:28:02;14.90;10.30
1021;DHT22;499;42.648;23.270;2022-09-20T12:30:30;14.90;10.50
1021;DHT22;499;42.648;23.270;2022-09-20T12:32:59;14.70;9.50
1021;DHT22;499;42.648;23.270;2022-09-20T12:35:59;14.70;8.80
1021;DHT22;499;42.648;23.270;2022-09-20T12:38:58;14.60;8.40
1021;DHT22;499;42.648;23.270;2022-09-20T12:41:26;14.60;9.90
1021;DHT22;499;42.648;23.270;2022-09-20T12:43:57;14.80;10.50
1021;DHT22;499;42.648;23.270;2022-09-20T12:46:39;14.90;10.70
1021;DHT22;499;42.648;23.270;2022-09-20T12:49:40;15.00;10.80
1021;DHT22;499;42.648;23.270;2022-09-20T12:52:37;14.70;10.00
1021;DHT22;499;42.648;23.270;2022-09-20T12:55:39;14.60;10.50
1021;DHT22;499;42.648;23.270;2022-09-20T12:58:33;14.70;10.30
1021;DHT22;499;42.648;23.270;2022-09-20T13:01:30;14.60;10.50
1021;DHT22;499;42.648;23.270;2022-09-20T13:07:27;14.60;10.50
1021;DHT22;499;42.648;23.270;2022-09-20T13:10:00;14.60;11.20
1021;DHT22;499;42.648;23.270;2022-09-20T13:12:28;14.80;10.60
1021;DHT22;499;42.648;23.270;2022-09-20T13:14:57;14.90;10.00
1021;DHT22;499;42.648;23.270;2022-09-20T13:17:26;14.90;10.30
1021;DHT22;499;42.648;23.270;2022-09-20T13:19:56;14.80;10.60
1021;DHT22;499;42.648;23.270;2022-09-20T13:22:25;14.80;10.60
1021;DHT22;499;42.648;23.270;2022-09-20T13:24:57;14.80;10.60
1021;DHT22;499;42.648;23.270;2022-09-20T13:27:29;14.90;10.70
1021;DHT22;499;42.648;23.270;2022-09-20T13:30:08;14.80;10.70
1021;DHT22;499;42.648;23.270;2022-09-20T13:32:40;14.60;9.90
1021;DHT22;499;42.648;23.270;2022-09-20T13:35:13;14.50;10.60
1021;DHT22;499;42.648;23.270;2022-09-20T13:37:50;14.50;10.70
1021;DHT22;499;42.648;23.270;2022-09-20T13:40:20;14.50;10.40
1021;DHT22;499;42.648;23.270;2022-09-20T13:42:50;14.60;10.50
1021;DHT22;499;42.648;23.270;2022-09-20T13:45:19;14.60;10.50
1021;DHT22;499;42.648;23.270;2022-09-20T13:47:48;14.60;9.20
1021;DHT22;499;42.648;23.270;2022-09-20T13:50:20;14.60;9.40
1021;DHT22;499;42.648;23.270;2022-09-20T13:52:49;14.60;9.30
1021;DHT22;499;42.648;23.270;2022-09-20T13:55:35;14.50;9.00
1021;DHT22;499;42.648;23.270;2022-09-20T13:58:07;14.50;9.20
1021;DHT22;499;42.648;23.270;2022-09-20T14:00:45;14.50;9.50
1021;DHT22;499;42.648;23.270;2022-09-20T14:03:16;14.40;9.50
1021;DHT22;499;42.648;23.270;2022-09-20T14:05:45;14.30;9.80
1021;DHT22;499;42.648;23.270;2022-09-20T14:08:20;14.20;10.20
1021;DHT22;499;42.648;23.270;2022-09-20T14:10:49;14.00;10.00
1021;DHT22;499;42.648;23.270;2022-09-20T14:13:32;14.00;10.10
1021;DHT22;499;42.648;23.270;2022-09-20T14:16:01;14.00;10.50
1021;DHT22;499;42.648;23.270;2022-09-20T14:18:28;14.00;10.20
1021;DHT22;499;42.648;23.270;2022-09-20T14:20:56;14.10;11.20
1021;DHT22;499;42.648;23.270;2022-09-20T14:23:26;14.20;11.70
1021;DHT22;499;42.648;23.270;2022-09-20T14:26:06;14.30;11.60
1021;DHT22;499;42.648;23.270;2022-09-20T14:28:35;14.30;12.20
1021;DHT22;499;42.648;23.270;2022-09-20T14:31:06;14.30;11.40
1021;DHT22;499;42.648;23.270;2022-09-20T14:33:39;14.30;10.30
1021;DHT22;499;42.648;23.270;2022-09-20T14:36:12;14.30;10.80
1021;DHT22;499;42.648;23.270;2022-09-20T14:38:42;14.30;11.90
1021;DHT22;499;42.648;23.270;2022-09-20T14:41:10;14.30;13.00
1021;DHT22;499;42.648;23.270;2022-09-20T14:43:39;14.40;13.00
1021;DHT22;499;42.648;23.270;2022-09-20T14:46:15;14.40;11.70
1021;DHT22;499;42.648;23.270;2022-09-20T14:48:42;14.40;11.00
1021;DHT22;499;42.648;23.270;2022-09-20T14:51:21;14.20;10.40
1021;DHT22;499;42.648;23.270;2022-09-20T14:53:51;14.30;11.40
1021;DHT22;499;42.648;23.270;2022-09-20T14:56:31;14.30;12.10
1021;DHT22;499;42.648;23.270;2022-09-20T14:59:22;14.30;12.40
1021;DHT22;499;42.648;23.270;2022-09-20T15:02:00;14.30;12.70
1021;DHT22;499;42.648;23.270;2022-09-20T15:04:28;14.10;11.80
1021;DHT22;499;42.648;23.270;2022-09-20T15:06:59;14.00;12.20
1021;DHT22;499;42.648;23.270;2022-09-20T15:09:27;14.00;12.90
1021;DHT22;499;42.648;23.270;2022-09-20T15:12:02;13.80;13.50
1021;DHT22;499;42.648;23.270;2022-09-20T15:14:31;13.80;14.00
1021;DHT22;499;42.648;23.270;2022-09-20T15:16:58;13.70;14.30
1021;DHT22;499;42.648;23.270;2022-09-20T15:19:26;13.60;14.90
1021;DHT22;499;42.648;23.270;2022-09-20T15:21:55;13.60;15.50
1021;DHT22;499;42.648;23.270;2022-09-20T15:24:22;13.60;15.80
1021;DHT22;499;42.648;23.270;2022-09-20T15:26:49;13.50;16.00
1021;DHT22;499;42.648;23.270;2022-09-20T15:29:16;13.40;16.80
1021;DHT22;499;42.648;23.270;2022-09-20T15:31:46;13.40;16.70
1021;DHT22;499;42.648;23.270;2022-09-20T15:34:14;13.30;17.40
1021;DHT22;499;42.648;23.270;2022-09-20T15:36:41;13.30;17.40
1021;DHT22;499;42.648;23.270;2022-09-20T15:39:09;13.20;17.30
1021;DHT22;499;42.648;23.270;2022-09-20T15:41:37;13.10;17.50
1021;DHT22;499;42.648;23.270;2022-09-20T15:44:05;13.00;17.50
1021;DHT22;499;42.648;23.270;2022-09-20T15:46:33;13.00;17.80
1021;DHT22;499;42.648;23.270;2022-09-20T15:49:02;13.00;18.80
1021;DHT22;499;42.648;23.270;2022-09-20T15:51:31;13.00;19.50
1021;DHT22;499;42.648;23.270;2022-09-20T15:54:00;12.90;19.80
1021;DHT22;499;42.648;23.270;2022-09-20T15:56:28;12.80;20.10
1021;DHT22;499;42.648;23.270;2022-09-20T15:58:57;12.70;20.10
1021;DHT22;499;42.648;23.270;2022-09-20T16:01:26;12.60;20.60
1021;DHT22;499;42.648;23.270;2022-09-20T16:03:54;12.60;21.20
1021;DHT22;499;42.648;23.270;2022-09-20T16:06:23;12.50;21.10
1021;DHT22;499;42.648;23.270;2022-09-20T16:08:51;12.40;21.00
1021;DHT22;499;42.648;23.270;2022-09-20T16:11:19;12.30;21.00
1021;DHT22;499;42.648;23.270;2022-09-20T16:13:51;12.20;22.10
1021;DHT22;499;42.648;23.270;2022-09-20T16:16:18;12.20;22.40
1021;DHT22;499;42.648;23.270;2022-09-20T16:18:45;12.10;22.50
1021;DHT22;499;42.648;23.270;2022-09-20T16:21:31;12.00;22.40
1021;DHT22;499;42.648;23.270;2022-09-20T16:23:59;12.00;22.70
1021;DHT22;499;42.648;23.270;2022-09-20T16:26:27;11.90;22.80
1021;DHT22;499;42.648;23.270;2022-09-20T16:28:56;11.60;23.00
1021;DHT22;499;42.648;23.270;2022-09-20T16:31:34;11.60;23.60
1021;DHT22;499;42.648;23.270;2022-09-20T16:34:06;11.50;23.30
1021;DHT22;499;42.648;23.270;2022-09-20T16:36:36;11.40;24.20
1021;DHT22;499;42.648;23.270;2022-09-20T16:39:05;11.20;24.60
1021;DHT22;499;42.648;23.270;2022-09-20T16:41:32;11.20;24.10
1021;DHT22;499;42.648;23.270;2022-09-20T16:44:00;11.20;24.10
1021;DHT22;499;42.648;23.270;2022-09-20T16:46:29;11.20;24.10
1021;DHT22;499;42.648;23.270;2022-09-20T16:48:57;11.10;24.00
1021;DHT22;499;42.648;23.270;2022-09-20T16:51:29;11.00;24.00
1021;DHT22;499;42.648;23.270;2022-09-20T16:54:00;11.00;24.00
1021;DHT22;499;42.648;23.270;2022-09-20T16:56:29;10.90;23.90
1021;DHT22;499;42.648;23.270;2022-09-20T16:58:58;10.80;23.80
1021;DHT22;499;42.648;23.270;2022-09-20T17:01:26;10.80;24.70
1021;DHT22;499;42.648;23.270;2022-09-20T17:03:53;10.80;24.80
1021;DHT22;499;42.648;23.270;2022-09-20T17:06:21;10.80;24.90
1021;DHT22;499;42.648;23.270;2022-09-20T17:08:51;10.70;25.20
1021;DHT22;499;42.648;23.270;2022-09-20T17:11:21;10.80;25.10
1021;DHT22;499;42.648;23.270;2022-09-20T17:13:50;10.80;25.50
1021;DHT22;499;42.648;23.270;2022-09-20T17:16:19;10.80;25.60
1021;DHT22;499;42.648;23.270;2022-09-20T17:18:50;10.80;26.00
1021;DHT22;499;42.648;23.270;2022-09-20T17:21:17;10.70;26.40
1021;DHT22;499;42.648;23.270;2022-09-20T17:23:46;10.70;26.90
1021;DHT22;499;42.648;23.270;2022-09-20T17:26:15;10.60;27.00
1021;DHT22;499;42.648;23.270;2022-09-20T17:28:46;10.50;27.40
1021;DHT22;499;42.648;23.270;2022-09-20T17:31:16;10.40;28.60
1021;DHT22;499;42.648;23.270;2022-09-20T17:33:43;10.50;29.30